sensor_id;sensor_type;location;lat;lon;timestamp;pressure;altitude;pressure_sealevel;temperature;humidity
20350;BME280;10332;50.208;18.988;2023-02-19T00:00:00;97785.88;;;8.19;100.00
20350;BME280;10332;50.208;18.988;2023-02-19T00:02:28;97799.25;;;8.13;100.00
20350;BME280;10332;50.208;18.988;2023-02-19T00:04:56;97787.81;;;8.16;100.00
20350;BME280;10332;50.208;18.988;2023-02-19T00:07:23;97787.00;;;8.15;100.00
20350;BME280;10332;50.208;18.988;2023-02-19T00:09:50;97780.13;;;8.14;100.00
20350;BME280;10332;50.208;18.988;2023-02-19T00:12:18;97776.91;;;8.11;100.00
20350;BME280;10332;50.208;18.988;2023-02-19T00:14:45;97772.44;;;8.13;100.00
20350;BME280;10332;50.208;18.988;2023-02-19T00:17:13;97777.63;;;8.13;100.00
20350;BME280;10332;50.208;18.988;2023-02-19T00:19:40;97782.09;;;8.11;100.00
20350;BME280;10332;50.208;18.988;2023-02-19T00:22:07;97771.69;;;8.11;100.00
20350;BME280;10332;50.208;18.988;2023-02-19T00:24:35;97779.25;;;8.01;100.00
20350;BME280;10332;50.208;18.988;2023-02-19T00:27:02;97780.22;;;8.13;100.00
20350;BME280;10332;50.208;18.988;2023-02-19T00:29:30;97773.63;;;8.07;100.00
20350;BME280;10332;50.208;18.988;2023-02-19T00:31:57;97765.47;;;8.13;100.00
20350;BME280;10332;50.208;18.988;2023-02-19T00:34:25;97777.16;;;8.06;100.00
20350;BME280;10332;50.208;18.988;2023-02-19T00:36:52;97784.50;;;8.00;100.00
20350;BME280;10332;50.208;18.988;2023-02-19T00:39:20;97769.22;;;7.95;100.00
20350;BME280;10332;50.208;18.988;2023-02-19T00:41:47;97770.16;;;7.94;100.00
20350;BME280;10332;50.208;18.988;2023-02-19T00:44:15;97773.28;;;7.99;100.00
20350;BME280;10332;50.208;18.988;2023-02-19T00:46:45;97781.66;;;8.04;100.00
20350;BME280;10332;50.208;18.988;2023-02-19T00:49:19;97767.19;;;7.86;100.00
20350;BME280;10332;50.208;18.988;2023-02-19T00:51:48;97767.81;;;8.04;100.00
20350;BME280;10332;50.208;18.988;2023-02-19T00:54:16;97767.50;;;8.08;100.00
20350;BME280;10332;50.208;18.988;2023-02-19T00:56:43;97766.41;;;7.98;100.00
20350;BME280;10332;50.208;18.988;2023-02-19T00:59:12;97757.91;;;7.96;100.00
20350;BME280;10332;50.208;18.988;2023-02-19T01:01:40;97758.44;;;8.01;100.00
20350;BME280;10332;50.208;18.988;2023-02-19T01:04:08;97759.09;;;7.90;100.00
20350;BME280;10332;50.208;18.988;2023-02-19T01:06:36;97760.88;;;7.90;100.00
20350;BME280;10332;50.208;18.988;2023-02-19T01:09:04;97760.13;;;7.88;100.00
20350;BME280;10332;50.208;18.988;2023-02-19T01:11:32;97755.34;;;7.82;100.00
20350;BME280;10332;50.208;18.988;2023-02-19T01:14:00;97759.09;;;7.90;100.00
20350;BME280;10332;50.208;18.988;2023-02-19T01:16:29;97753.56;;;7.82;100.00
20350;BME280;10332;50.208;18.988;2023-02-19T01:18:57;97751.50;;;7.87;100.00
20350;BME280;10332;50.208;18.988;2023-02-19T01:21:27;97748.63;;;7.92;100.00
20350;BME280;10332;50.208;18.988;2023-02-19T01:23:56;97749.94;;;7.85;100.00
20350;BME280;10332;50.208;18.988;2023-02-19T01:26:28;97744.38;;;7.91;100.00
20350;BME280;10332;50.208;18.988;2023-02-19T01:28:58;97736.22;;;7.83;100.00
20350;BME280;10332;50.208;18.988;2023-02-19T01:31:26;97727.31;;;7.73;100.00
20350;BME280;10332;50.208;18.988;2023-02-19T01:34:00;97728.44;;;7.83;100.00
20350;BME280;10332;50.208;18.988;2023-02-19T01:36:31;97722.09;;;7.87;100.00
20350;BME280;10332;50.208;18.988;2023-02-19T01:39:00;97718.50;;;7.75;100.00
20350;BME280;10332;50.208;18.988;2023-02-19T01:41:32;97709.13;;;7.73;100.00
20350;BME280;10332;50.208;18.988;2023-02-19T01:46:45;97714.97;;;7.76;100.00
20350;BME280;10332;50.208;18.988;2023-02-19T01:49:18;97716.19;;;7.71;100.00
20350;BME280;10332;50.208;18.988;2023-02-19T01:51:55;97714.97;;;7.76;100.00
20350;BME280;10332;50.208;18.988;2023-02-19T01:54:31;97714.16;;;7.61;100.00
20350;BME280;10332;50.208;18.988;2023-02-19T01:57:07;97713.41;;;7.74;100.00
20350;BME280;10332;50.208;18.988;2023-02-19T01:59:37;97703.38;;;7.67;100.00
20350;BME280;10332;50.208;18.988;2023-02-19T02:02:05;97692.28;;;7.65;100.00
20350;BME280;10332;50.208;18.988;2023-02-19T02:04:34;97696.06;;;7.74;100.00
20350;BME280;10332;50.208;18.988;2023-02-19T02:07:04;97690.84;;;7.74;100.00
20350;BME280;10332;50.208;18.988;2023-02-19T02:09:53;97691.59;;;7.76;100.00
20350;BME280;10332;50.208;18.988;2023-02-19T02:12:39;97681.88;;;7.65;100.00
20350;BME280;10332;50.208;18.988;2023-02-19T02:15:08;97685.00;;;7.71;100.00
20350;BME280;10332;50.208;18.988;2023-02-19T02:17:54;97681.94;;;7.78;100.00
20350;BME280;10332;50.208;18.988;2023-02-19T02:36:02;97689.44;;;7.83;100.00
20350;BME280;10332;50.208;18.988;2023-02-19T02:38:39;97675.06;;;7.77;100.00
20350;BME280;10332;50.208;18.988;2023-02-19T02:41:08;97673.50;;;7.75;100.00
20350;BME280;10332;50.208;18.988;2023-02-19T02:43:36;97685.34;;;7.79;100.00
20350;BME280;10332;50.208;18.988;2023-02-19T02:46:04;97672.56;;;7.76;100.00
20350;BME280;10332;50.208;18.988;2023-02-19T02:48:44;97663.38;;;7.70;100.00
20350;BME280;10332;50.208;18.988;2023-02-19T02:51:23;97681.31;;;7.75;100.00
20350;BME280;10332;50.208;18.988;2023-02-19T02:56:43;97667.47;;;7.74;100.00
20350;BME280;10332;50.208;18.988;2023-02-19T02:59:16;97653.09;;;7.68;100.00
20350;BME280;10332;50.208;18.988;2023-02-19T03:02:22;97643.63;;;7.67;100.00
20350;BME280;10332;50.208;18.988;2023-02-19T03:05:19;97642.16;;;7.63;100.00
20350;BME280;10332;50.208;18.988;2023-02-19T03:08:21;97640.22;;;7.67;100.00
20350;BME280;10332;50.208;18.988;2023-02-19T03:11:05;97648.16;;;7.78;100.00
20350;BME280;10332;50.208;18.988;2023-02-19T03:16:47;97648.22;;;7.64;100.00
20350;BME280;10332;50.208;18.988;2023-02-19T03:19:42;97655.34;;;7.60;100.00
20350;BME280;10332;50.208;18.988;2023-02-19T03:22:33;97639.41;;;7.52;100.00
20350;BME280;10332;50.208;18.988;2023-02-19T03:25:20;97653.31;;;7.51;100.00
20350;BME280;10332;50.208;18.988;2023-02-19T03:28:12;97659.91;;;7.57;100.00
20350;BME280;10332;50.208;18.988;2023-02-19T03:30:51;97660.00;;;7.55;100.00
20350;BME280;10332;50.208;18.988;2023-02-19T03:33:25;97647.03;;;7.55;100.00
20350;BME280;10332;50.208;18.988;2023-02-19T03:35:59;97657.06;;;7.47;100.00
20350;BME280;10332;50.208;18.988;2023-02-19T03:38:53;97650.38;;;7.43;100.00
20350;BME280;10332;50.208;18.988;2023-02-19T03:42:01;97645.38;;;7.40;100.00
20350;BME280;10332;50.208;18.988;2023-02-19T03:45:06;97640.28;;;7.38;100.00
20350;BME280;10332;50.208;18.988;2023-02-19T03:54:21;97643.41;;;7.58;100.00
20350;BME280;10332;50.208;18.988;2023-02-19T03:57:15;97641.28;;;7.50;100.00
20350;BME280;10332;50.208;18.988;2023-02-19T03:59:58;97644.59;;;7.52;100.00
20350;BME280;10332;50.208;18.988;2023-02-19T04:02:41;97632.69;;;7.62;100.00
20350;BME280;10332;50.208;18.988;2023-02-19T04:05:26;97637.63;;;7.67;100.00
20350;BME280;10332;50.208;18.988;2023-02-19T04:08:07;97632.53;;;7.65;100.00
20350;BME280;10332;50.208;18.988;2023-02-19T04:10:38;97625.84;;;7.61;100.00
20350;BME280;10332;50.208;18.988;2023-02-19T04:13:16;97619.31;;;7.68;100.00
20350;BME280;10332;50.208;18.988;2023-02-19T04:15:47;97626.03;;;7.58;100.00
20350;BME280;10332;50.208;18.988;2023-02-19T04:18:21;97614.34;;;7.65;100.00
20350;BME280;10332;50.208;18.988;2023-02-19T04:20:51;97619.13;;;7.72;100.00
20350;BME280;10332;50.208;18.988;2023-02-19T04:23:24;97625.34;;;7.69;100.00
20350;BME280;10332;50.208;18.988;2023-02-19T04:25:57;97629.25;;;7.62;100.00
20350;BME280;10332;50.208;18.988;2023-02-19T04:28:27;97624.81;;;7.64;100.00
20350;BME280;10332;50.208;18.988;2023-02-19T04:30:55;97623.47;;;7.71;100.00
20350;BME280;10332;50.208;18.988;2023-02-19T04:33:23;97613.91;;;7.72;100.00
20350;BME280;10332;50.208;18.988;2023-02-19T04:35:50;97606.88;;;7.74;100.00
20350;BME280;10332;50.208;18.988;2023-02-19T04:38:18;97602.59;;;7.73;100.00
20350;BME280;10332;50.208;18.988;2023-02-19T04:40:46;97600.56;;;7.90;100.00
20350;BME280;10332;50.208;18.988;2023-02-19T04:43:14;97603.28;;;7.89;100.00
20350;BME280;10332;50.208;18.988;2023-02-19T04:45:41;97599.22;;;7.85;100.00
20350;BME280;10332;50.208;18.988;2023-02-19T04:48:09;97591.53;;;7.83;100.00
20350;BME280;10332;50.208;18.988;2023-02-19T04:50:40;97581.75;;;7.87;100.00
20350;BME280;10332;50.208;18.988;2023-02-19T04:53:07;97588.38;;;7.78;100.00
20350;BME280;10332;50.208;18.988;2023-02-19T04:55:38;97586.03;;;7.88;100.00
20350;BME280;10332;50.208;18.988;2023-02-19T04:58:06;97574.91;;;7.86;100.00
20350;BME280;10332;50.208;18.988;2023-02-19T05:00:33;97560.63;;;7.79;100.00
20350;BME280;10332;50.208;18.988;2023-02-19T05:03:01;97555.16;;;7.83;100.00
20350;BME280;10332;50.208;18.988;2023-02-19T05:05:29;97538.53;;;7.86;100.00
20350;BME280;10332;50.208;18.988;2023-02-19T05:07:56;97543.50;;;7.89;100.00
20350;BME280;10332;50.208;18.988;2023-02-19T05:10:24;97547.47;;;7.82;100.00
20350;BME280;10332;50.208;18.988;2023-02-19T05:12:53;97538.31;;;7.89;100.00
20350;BME280;10332;50.208;18.988;2023-02-19T05:15:23;97535.59;;;7.90;100.00
20350;BME280;10332;50.208;18.988;2023-02-19T05:17:51;97540.41;;;7.84;100.00
20350;BME280;10332;50.208;18.988;2023-02-19T05:20:18;97537.28;;;7.91;100.00
20350;BME280;10332;50.208;18.988;2023-02-19T05:22:46;97522.53;;;7.92;100.00
20350;BME280;10332;50.208;18.988;2023-02-19T05:25:13;97523.69;;;8.01;100.00
20350;BME280;10332;50.208;18.988;2023-02-19T05:27:41;97522.84;;;8.00;100.00
20350;BME280;10332;50.208;18.988;2023-02-19T05:30:09;97521.91;;;8.01;100.00
20350;BME280;10332;50.208;18.988;2023-02-19T05:32:37;97525.63;;;7.97;100.00
20350;BME280;10332;50.208;18.988;2023-02-19T05:35:05;97523.75;;;7.99;100.00
20350;BME280;10332;50.208;18.988;2023-02-19T05:37:33;97524.69;;;7.98;100.00
20350;BME280;10332;50.208;18.988;2023-02-19T05:40:00;97521.81;;;8.03;100.00
20350;BME280;10332;50.208;18.988;2023-02-19T05:42:28;97523.91;;;8.10;100.00
20350;BME280;10332;50.208;18.988;2023-02-19T05:44:55;97519.41;;;8.12;100.00
20350;BME280;10332;50.208;18.988;2023-02-19T05:47:23;97521.63;;;8.18;100.00
20350;BME280;10332;50.208;18.988;2023-02-19T05:49:50;97526.59;;;8.21;100.00
20350;BME280;10332;50.208;18.988;2023-02-19T05:52:18;97533.78;;;8.31;100.00
20350;BME280;10332;50.208;18.988;2023-02-19T05:54:45;97539.44;;;8.37;100.00
20350;BME280;10332;50.208;18.988;2023-02-19T05:57:13;97552.53;;;8.36;100.00
20350;BME280;10332;50.208;18.988;2023-02-19T05:59:40;97559.56;;;8.34;100.00
20350;BME280;10332;50.208;18.988;2023-02-19T06:02:08;97557.41;;;8.40;100.00
20350;BME280;10332;50.208;18.988;2023-02-19T06:04:36;97553.97;;;8.40;100.00
20350;BME280;10332;50.208;18.988;2023-02-19T06:07:04;97546.88;;;8.29;100.00
20350;BME280;10332;50.208;18.988;2023-02-19T06:09:31;97520.84;;;8.16;100.00
20350;BME280;10332;50.208;18.988;2023-02-19T06:11:58;97545.09;;;8.17;100.00
20350;BME280;10332;50.208;18.988;2023-02-19T06:14:26;97542.28;;;8.07;100.00
20350;BME280;10332;50.208;18.988;2023-02-19T06:16:53;97549.34;;;8.05;100.00
20350;BME280;10332;50.208;18.988;2023-02-19T06:19:21;97549.66;;;8.13;100.00
20350;BME280;10332;50.208;18.988;2023-02-19T06:21:49;97557.53;;;7.99;100.00
20350;BME280;10332;50.208;18.988;2023-02-19T06:24:16;97561.22;;;8.09;100.00
20350;BME280;10332;50.208;18.988;2023-02-19T06:26:44;97559.84;;;8.04;100.00
20350;BME280;10332;50.208;18.988;2023-02-19T06:29:12;97554.03;;;8.00;100.00
20350;BME280;10332;50.208;18.988;2023-02-19T06:31:40;97547.41;;;8.09;100.00
20350;BME280;10332;50.208;18.988;2023-02-19T06:34:07;97545.41;;;8.12;100.00
20350;BME280;10332;50.208;18.988;2023-02-19T06:36:35;97545.19;;;8.15;100.00
20350;BME280;10332;50.208;18.988;2023-02-19T06:39:04;97540.72;;;8.17;100.00
20350;BME280;10332;50.208;18.988;2023-02-19T06:41:32;97532.72;;;8.20;100.00
20350;BME280;10332;50.208;18.988;2023-02-19T06:44:00;97539.38;;;8.12;100.00
20350;BME280;10332;50.208;18.988;2023-02-19T06:46:27;97529.81;;;8.12;100.00
20350;BME280;10332;50.208;18.988;2023-02-19T06:48:55;97528.78;;;8.28;100.00
20350;BME280;10332;50.208;18.988;2023-02-19T06:51:22;97530.13;;;8.33;100.00
20350;BME280;10332;50.208;18.988;2023-02-19T06:53:53;97534.59;;;8.31;100.00
20350;BME280;10332;50.208;18.988;2023-02-19T06:56:32;97530.34;;;8.43;100.00
20350;BME280;10332;50.208;18.988;2023-02-19T06:59:03;97536.25;;;8.32;100.00
20350;BME280;10332;50.208;18.988;2023-02-19T07:01:33;97533.25;;;8.25;100.00
20350;BME280;10332;50.208;18.988;2023-02-19T07:04:01;97526.88;;;8.17;100.00
20350;BME280;10332;50.208;18.988;2023-02-19T07:06:31;97536.47;;;8.16;100.00
20350;BME280;10332;50.208;18.988;2023-02-19T07:08:59;97525.34;;;8.14;100.00
20350;BME280;10332;50.208;18.988;2023-02-19T07:11:30;97518.16;;;8.31;100.00
20350;BME280;10332;50.208;18.988;2023-02-19T07:14:01;97529.59;;;8.15;100.00
20350;BME280;10332;50.208;18.988;2023-02-19T07:16:30;97528.25;;;8.22;100.00
20350;BME280;10332;50.208;18.988;2023-02-19T07:18:59;97521.28;;;8.23;100.00
20350;BME280;10332;50.208;18.988;2023-02-19T07:21:28;97528.97;;;8.24;100.00
20350;BME280;10332;50.208;18.988;2023-02-19T07:23:56;97524.84;;;8.35;100.00
20350;BME280;10332;50.208;18.988;2023-02-19T07:26:24;97518.88;;;8.33;100.00
20350;BME280;10332;50.208;18.988;2023-02-19T07:28:51;97518.88;;;8.33;100.00
20350;BME280;10332;50.208;18.988;2023-02-19T07:31:22;97519.31;;;8.52;100.00
20350;BME280;10332;50.208;18.988;2023-02-19T07:33:50;97518.19;;;8.43;100.00
20350;BME280;10332;50.208;18.988;2023-02-19T07:36:20;97510.78;;;8.50;100.00
20350;BME280;10332;50.208;18.988;2023-02-19T07:38:58;97513.09;;;8.55;100.00
20350;BME280;10332;50.208;18.988;2023-02-19T07:41:26;97505.66;;;8.61;100.00
20350;BME280;10332;50.208;18.988;2023-02-19T07:43:54;97513.69;;;8.58;100.00
20350;BME280;10332;50.208;18.988;2023-02-19T07:46:22;97494.53;;;8.59;100.00
20350;BME280;10332;50.208;18.988;2023-02-19T07:48:49;97492.13;;;8.69;100.00
20350;BME280;10332;50.208;18.988;2023-02-19T07:51:19;97494.81;;;8.80;100.00
20350;BME280;10332;50.208;18.988;2023-02-19T07:53:49;97485.97;;;8.82;100.00
20350;BME280;10332;50.208;18.988;2023-02-19T07:56:19;97489.56;;;8.93;100.00
20350;BME280;10332;50.208;18.988;2023-02-19T07:58:47;97481.72;;;9.05;100.00
20350;BME280;10332;50.208;18.988;2023-02-19T08:01:24;97478.94;;;8.96;100.00
20350;BME280;10332;50.208;18.988;2023-02-19T08:04:13;97476.84;;;9.01;100.00
20350;BME280;10332;50.208;18.988;2023-02-19T08:06:42;97484.94;;;9.09;100.00
20350;BME280;10332;50.208;18.988;2023-02-19T08:09:09;97488.75;;;9.16;100.00
20350;BME280;10332;50.208;18.988;2023-02-19T08:11:37;97473.31;;;9.26;100.00
20350;BME280;10332;50.208;18.988;2023-02-19T08:14:26;97472.41;;;9.38;100.00
20350;BME280;10332;50.208;18.988;2023-02-19T08:16:54;97472.84;;;9.32;100.00
20350;BME280;10332;50.208;18.988;2023-02-19T08:19:22;97479.41;;;9.49;100.00
20350;BME280;10332;50.208;18.988;2023-02-19T08:21:50;97470.63;;;9.74;100.00
20350;BME280;10332;50.208;18.988;2023-02-19T08:24:17;97489.66;;;9.63;100.00
20350;BME280;10332;50.208;18.988;2023-02-19T08:26:45;97493.22;;;9.62;100.00
20350;BME280;10332;50.208;18.988;2023-02-19T08:29:12;97484.81;;;9.70;100.00
20350;BME280;10332;50.208;18.988;2023-02-19T08:31:40;97483.25;;;9.56;100.00
20350;BME280;10332;50.208;18.988;2023-02-19T08:34:07;97488.00;;;9.62;100.00
20350;BME280;10332;50.208;18.988;2023-02-19T08:36:35;97495.09;;;9.60;100.00
20350;BME280;10332;50.208;18.988;2023-02-19T08:39:03;97501.44;;;9.45;100.00
20350;BME280;10332;50.208;18.988;2023-02-19T08:41:31;97503.53;;;9.39;100.00
20350;BME280;10332;50.208;18.988;2023-02-19T08:43:58;97492.44;;;9.49;100.00
20350;BME280;10332;50.208;18.988;2023-02-19T08:46:26;97493.56;;;9.33;100.00
20350;BME280;10332;50.208;18.988;2023-02-19T08:48:53;97499.25;;;9.27;100.00
20350;BME280;10332;50.208;18.988;2023-02-19T08:51:21;97500.94;;;9.16;100.00
20350;BME280;10332;50.208;18.988;2023-02-19T08:53:48;97511.19;;;9.06;100.00
20350;BME280;10332;50.208;18.988;2023-02-19T08:56:16;97532.00;;;9.06;100.00
20350;BME280;10332;50.208;18.988;2023-02-19T08:58:44;97497.50;;;8.91;100.00
20350;BME280;10332;50.208;18.988;2023-02-19T09:01:15;97501.34;;;8.86;100.00
20350;BME280;10332;50.208;18.988;2023-02-19T09:03:44;97493.69;;;8.71;100.00
20350;BME280;10332;50.208;18.988;2023-02-19T09:06:16;97512.63;;;8.73;100.00
20350;BME280;10332;50.208;18.988;2023-02-19T09:08:44;97508.56;;;8.69;100.00
20350;BME280;10332;50.208;18.988;2023-02-19T09:11:13;97513.06;;;8.67;100.00
20350;BME280;10332;50.208;18.988;2023-02-19T09:13:41;97514.38;;;8.86;100.00
20350;BME280;10332;50.208;18.988;2023-02-19T09:16:10;97519.63;;;8.73;100.00
20350;BME280;10332;50.208;18.988;2023-02-19T09:18:37;97519.50;;;8.74;100.00
20350;BME280;10332;50.208;18.988;2023-02-19T09:21:06;97531.69;;;8.61;100.00
20350;BME280;10332;50.208;18.988;2023-02-19T09:23:35;97529.53;;;8.55;100.00
20350;BME280;10332;50.208;18.988;2023-02-19T09:26:05;97531.19;;;8.56;100.00
20350;BME280;10332;50.208;18.988;2023-02-19T09:28:36;97522.56;;;8.56;100.00
20350;BME280;10332;50.208;18.988;2023-02-19T09:31:14;97526.28;;;8.64;100.00
20350;BME280;10332;50.208;18.988;2023-02-19T09:33:45;97532.31;;;8.65;100.00
20350;BME280;10332;50.208;18.988;2023-02-19T09:36:15;97541.69;;;8.67;100.00
20350;BME280;10332;50.208;18.988;2023-02-19T09:38:43;97546.88;;;8.67;100.00
20350;BME280;10332;50.208;18.988;2023-02-19T09:41:34;97546.66;;;8.70;100.00
20350;BME280;10332;50.208;18.988;2023-02-19T09:44:05;97556.25;;;8.82;100.00
20350;BME280;10332;50.208;18.988;2023-02-19T09:46:46;97559.38;;;8.75;100.00
20350;BME280;10332;50.208;18.988;2023-02-19T09:49:27;97557.03;;;8.96;100.00
20350;BME280;10332;50.208;18.988;2023-02-19T09:52:18;97560.97;;;9.01;100.00
20350;BME280;10332;50.208;18.988;2023-02-19T09:54:51;97561.06;;;9.13;100.00
20350;BME280;10332;50.208;18.988;2023-02-19T09:57:28;97568.81;;;8.89;100.00
20350;BME280;10332;50.208;18.988;2023-02-19T10:00:19;97574.00;;;8.89;100.00
20350;BME280;10332;50.208;18.988;2023-02-19T10:02:52;97581.63;;;8.92;100.00
20350;BME280;10332;50.208;18.988;2023-02-19T10:05:23;97584.75;;;8.71;98.24
20350;BME280;10332;50.208;18.988;2023-02-19T10:07:53;97593.38;;;8.97;98.11
20350;BME280;10332;50.208;18.988;2023-02-19T10:10:29;97587.03;;;9.01;96.61
20350;BME280;10332;50.208;18.988;2023-02-19T10:13:28;97588.09;;;8.86;96.69
20350;BME280;10332;50.208;18.988;2023-02-19T10:16:00;97595.59;;;8.91;96.99
20350;BME280;10332;50.208;18.988;2023-02-19T10:18:36;97587.03;;;9.01;96.47
20350;BME280;10332;50.208;18.988;2023-02-19T10:21:05;97594.19;;;9.10;96.16
20350;BME280;10332;50.208;18.988;2023-02-19T10:23:33;97598.03;;;9.18;96.28
20350;BME280;10332;50.208;18.988;2023-02-19T10:26:01;97591.00;;;9.31;95.99
20350;BME280;10332;50.208;18.988;2023-02-19T10:28:34;97600.66;;;9.42;95.56
20350;BME280;10332;50.208;18.988;2023-02-19T10:31:10;97614.50;;;9.42;95.20
20350;BME280;10332;50.208;18.988;2023-02-19T10:33:57;97630.38;;;8.90;95.06
20350;BME280;10332;50.208;18.988;2023-02-19T10:36:37;97637.44;;;8.88;95.10
20350;BME280;10332;50.208;18.988;2023-02-19T10:41:50;97649.09;;;8.69;93.75
20350;BME280;10332;50.208;18.988;2023-02-19T10:44:27;97650.94;;;9.18;92.40
20350;BME280;10332;50.208;18.988;2023-02-19T10:46:58;97645.09;;;9.64;88.54
20350;BME280;10332;50.208;18.988;2023-02-19T10:49:33;97648.28;;;9.80;88.05
20350;BME280;10332;50.208;18.988;2023-02-19T10:52:33;97645.56;;;10.41;85.94
20350;BME280;10332;50.208;18.988;2023-02-19T10:55:34;97642.25;;;11.73;80.76
20350;BME280;10332;50.208;18.988;2023-02-19T10:58:25;97663.88;;;11.75;78.77
20350;BME280;10332;50.208;18.988;2023-02-19T11:01:23;97667.41;;;11.42;78.88
20350;BME280;10332;50.208;18.988;2023-02-19T11:04:16;97676.66;;;11.01;78.40
20350;BME280;10332;50.208;18.988;2023-02-19T11:06:45;97671.88;;;10.84;78.62
20350;BME280;10332;50.208;18.988;2023-02-19T11:09:39;97674.41;;;11.08;79.69
20350;BME280;10332;50.208;18.988;2023-02-19T11:12:11;97675.09;;;10.99;80.07
20350;BME280;10332;50.208;18.988;2023-02-19T11:14:44;97689.69;;;10.79;80.88
20350;BME280;10332;50.208;18.988;2023-02-19T11:17:27;97693.00;;;10.81;80.23
20350;BME280;10332;50.208;18.988;2023-02-19T11:20:16;97688.25;;;10.40;80.97
20350;BME280;10332;50.208;18.988;2023-02-19T11:22:44;97693.56;;;10.14;81.71
20350;BME280;10332;50.208;18.988;2023-02-19T11:28:04;97701.91;;;9.72;81.75
20350;BME280;10332;50.208;18.988;2023-02-19T11:30:40;97703.47;;;9.61;82.01
20350;BME280;10332;50.208;18.988;2023-02-19T11:35:59;97716.06;;;9.18;84.02
20350;BME280;10332;50.208;18.988;2023-02-19T11:38:44;97725.31;;;9.09;84.68
20350;BME280;10332;50.208;18.988;2023-02-19T11:41:55;97726.47;;;8.93;85.72
20350;BME280;10332;50.208;18.988;2023-02-19T11:45:06;97727.19;;;8.82;85.60
20350;BME280;10332;50.208;18.988;2023-02-19T11:47:54;97736.22;;;8.76;86.17
20350;BME280;10332;50.208;18.988;2023-02-19T11:53:26;97752.50;;;8.53;85.82
20350;BME280;10332;50.208;18.988;2023-02-19T11:56:26;97751.91;;;8.62;85.65
20350;BME280;10332;50.208;18.988;2023-02-19T12:10:30;97782.19;;;9.03;84.36
20350;BME280;10332;50.208;18.988;2023-02-19T12:13:22;97769.47;;;9.11;84.16
20350;BME280;10332;50.208;18.988;2023-02-19T12:22:18;97786.34;;;8.53;85.17
20350;BME280;10332;50.208;18.988;2023-02-19T12:31:33;97808.81;;;8.27;85.25
20350;BME280;10332;50.208;18.988;2023-02-19T12:48:27;97822.53;;;8.29;87.06
20350;BME280;10332;50.208;18.988;2023-02-19T12:51:13;97828.03;;;8.39;85.96
20350;BME280;10332;50.208;18.988;2023-02-19T12:53:55;97831.19;;;8.30;85.28
20350;BME280;10332;50.208;18.988;2023-02-19T12:56:36;97836.75;;;8.23;84.43
20350;BME280;10332;50.208;18.988;2023-02-19T12:59:14;97839.28;;;8.11;85.18
20350;BME280;10332;50.208;18.988;2023-02-19T13:02:05;97852.16;;;8.26;84.45
20350;BME280;10332;50.208;18.988;2023-02-19T13:04:50;97865.66;;;7.90;83.53
20350;BME280;10332;50.208;18.988;2023-02-19T13:13:06;97853.38;;;8.35;78.50
20350;BME280;10332;50.208;18.988;2023-02-19T13:15:49;97869.44;;;8.42;77.22
20350;BME280;10332;50.208;18.988;2023-02-19T13:18:33;97881.97;;;8.35;77.49
20350;BME280;10332;50.208;18.988;2023-02-19T13:21:04;97874.78;;;8.53;74.94
20350;BME280;10332;50.208;18.988;2023-02-19T13:23:36;97894.91;;;8.37;75.01
20350;BME280;10332;50.208;18.988;2023-02-19T13:27:15;97890.81;;;8.18;74.67
20350;BME280;10332;50.208;18.988;2023-02-19T13:30:12;97904.19;;;7.84;75.37
20350;BME280;10332;50.208;18.988;2023-02-19T13:36:19;97909.72;;;7.49;77.01
20350;BME280;10332;50.208;18.988;2023-02-19T13:38:49;97911.38;;;7.50;77.23
20350;BME280;10332;50.208;18.988;2023-02-19T13:41:27;97921.88;;;7.19;77.04
20350;BME280;10332;50.208;18.988;2023-02-19T13:44:03;97918.91;;;7.10;78.44
20350;BME280;10332;50.208;18.988;2023-02-19T13:46:42;97926.34;;;7.61;77.93
20350;BME280;10332;50.208;18.988;2023-02-19T14:01:09;97944.84;;;10.28;61.86
20350;BME280;10332;50.208;18.988;2023-02-19T14:04:18;97946.88;;;9.59;63.59
20350;BME280;10332;50.208;18.988;2023-02-19T14:14:44;97962.22;;;8.97;63.26
20350;BME280;10332;50.208;18.988;2023-02-19T14:17:38;97969.81;;;9.14;63.57
20350;BME280;10332;50.208;18.988;2023-02-19T14:25:50;97973.84;;;8.64;64.11
20350;BME280;10332;50.208;18.988;2023-02-19T14:28:34;97991.75;;;8.83;64.15
20350;BME280;10332;50.208;18.988;2023-02-19T14:31:35;97993.69;;;8.79;64.43
20350;BME280;10332;50.208;18.988;2023-02-19T14:34:16;98006.19;;;8.46;65.07
20350;BME280;10332;50.208;18.988;2023-02-19T14:36:58;98001.22;;;8.13;65.53
20350;BME280;10332;50.208;18.988;2023-02-19T14:39:33;98004.28;;;7.91;66.34
20350;BME280;10332;50.208;18.988;2023-02-19T14:42:24;98010.34;;;7.76;67.23
20350;BME280;10332;50.208;18.988;2023-02-19T14:45:04;98011.91;;;7.64;68.38
20350;BME280;10332;50.208;18.988;2023-02-19T14:47:35;98004.28;;;7.31;70.22
20350;BME280;10332;50.208;18.988;2023-02-19T14:50:15;98019.63;;;7.20;70.52
20350;BME280;10332;50.208;18.988;2023-02-19T14:52:52;98017.34;;;7.14;70.34
20350;BME280;10332;50.208;18.988;2023-02-19T14:55:36;98019.22;;;7.11;71.16
20350;BME280;10332;50.208;18.988;2023-02-19T14:58:22;98003.13;;;6.89;71.82
20350;BME280;10332;50.208;18.988;2023-02-19T15:00:51;98015.88;;;6.94;72.59
20350;BME280;10332;50.208;18.988;2023-02-19T15:03:33;98017.94;;;6.87;73.32
20350;BME280;10332;50.208;18.988;2023-02-19T15:06:07;98015.44;;;6.86;73.62
20350;BME280;10332;50.208;18.988;2023-02-19T15:08:44;98021.28;;;6.89;73.11
20350;BME280;10332;50.208;18.988;2023-02-19T15:11:25;98031.81;;;6.70;72.16
20350;BME280;10332;50.208;18.988;2023-02-19T15:13:58;98028.41;;;6.86;72.16
20350;BME280;10332;50.208;18.988;2023-02-19T15:16:28;98028.16;;;6.90;71.28
20350;BME280;10332;50.208;18.988;2023-02-19T15:18:57;98035.03;;;6.75;72.16
20350;BME280;10332;50.208;18.988;2023-02-19T15:21:30;98039.53;;;6.72;72.21
20350;BME280;10332;50.208;18.988;2023-02-19T15:24:04;98057.84;;;6.69;72.29